sensor_id;sensor_type;location;lat;lon;timestamp;temperature;humidity
13992;DHT22;7070;53.586;9.692;2023-02-13T00:00:02;8.50;89.80
13992;DHT22;7070;53.586;9.692;2023-02-13T00:02:31;8.40;89.70
13992;DHT22;7070;53.586;9.692;2023-02-13T00:04:58;8.40;89.70
13992;DHT22;7070;53.586;9.692;2023-02-13T00:07:25;8.50;89.90
13992;DHT22;7070;53.586;9.692;2023-02-13T00:09:52;8.40;89.80
13992;DHT22;7070;53.586;9.692;2023-02-13T00:12:19;8.50;89.90
13992;DHT22;7070;53.586;9.692;2023-02-13T00:14:46;8.50;89.80
13992;DHT22;7070;53.586;9.692;2023-02-13T00:17:13;8.40;89.80
13992;DHT22;7070;53.586;9.692;2023-02-13T00:19:41;8.50;89.80
13992;DHT22;7070;53.586;9.692;2023-02-13T00:22:08;8.40;89.70
13992;DHT22;7070;53.586;9.692;2023-02-13T00:24:35;8.50;90.00
13992;DHT22;7070;53.586;9.692;2023-02-13T00:27:02;8.40;89.90
13992;DHT22;7070;53.586;9.692;2023-02-13T00:29:29;8.40;89.80
13992;DHT22;7070;53.586;9.692;2023-02-13T00:31:56;8.40;89.80
13992;DHT22;7070;53.586;9.692;2023-02-13T00:34:22;8.40;89.80
13992;DHT22;7070;53.586;9.692;2023-02-13T00:36:51;8.40;89.80
13992;DHT22;7070;53.586;9.692;2023-02-13T00:39:18;8.40;89.80
13992;DHT22;7070;53.586;9.692;2023-02-13T00:41:44;8.40;89.70
13992;DHT22;7070;53.586;9.692;2023-02-13T00:44:11;8.40;90.20
13992;DHT22;7070;53.586;9.692;2023-02-13T00:46:38;8.50;89.80
13992;DHT22;7070;53.586;9.692;2023-02-13T00:49:05;8.40;89.80
13992;DHT22;7070;53.586;9.692;2023-02-13T00:51:32;8.40;89.80
13992;DHT22;7070;53.586;9.692;2023-02-13T00:54:00;8.40;90.20
13992;DHT22;7070;53.586;9.692;2023-02-13T00:56:36;8.40;89.90
13992;DHT22;7070;53.586;9.692;2023-02-13T00:59:03;8.40;89.80
13992;DHT22;7070;53.586;9.692;2023-02-13T01:01:30;8.50;90.00
13992;DHT22;7070;53.586;9.692;2023-02-13T01:03:57;8.40;90.00
13992;DHT22;7070;53.586;9.692;2023-02-13T01:06:23;8.40;89.90
13992;DHT22;7070;53.586;9.692;2023-02-13T01:08:50;8.30;89.80
13992;DHT22;7070;53.586;9.692;2023-02-13T01:11:18;8.40;89.80
13992;DHT22;7070;53.586;9.692;2023-02-13T01:13:45;8.40;89.80
13992;DHT22;7070;53.586;9.692;2023-02-13T01:16:12;8.40;89.80
13992;DHT22;7070;53.586;9.692;2023-02-13T01:18:42;8.40;89.80
13992;DHT22;7070;53.586;9.692;2023-02-13T01:21:19;8.40;89.90
13992;DHT22;7070;53.586;9.692;2023-02-13T01:23:48;8.30;89.80
13992;DHT22;7070;53.586;9.692;2023-02-13T01:26:16;8.40;89.90
13992;DHT22;7070;53.586;9.692;2023-02-13T01:28:45;8.40;89.90
13992;DHT22;7070;53.586;9.692;2023-02-13T01:31:13;8.30;89.80
13992;DHT22;7070;53.586;9.692;2023-02-13T01:33:40;8.40;89.90
13992;DHT22;7070;53.586;9.692;2023-02-13T01:36:08;8.40;89.90
13992;DHT22;7070;53.586;9.692;2023-02-13T01:38:36;8.40;89.80
13992;DHT22;7070;53.586;9.692;2023-02-13T01:41:03;8.40;89.80
13992;DHT22;7070;53.586;9.692;2023-02-13T01:43:51;8.40;89.90
13992;DHT22;7070;53.586;9.692;2023-02-13T01:46:22;8.30;89.80
13992;DHT22;7070;53.586;9.692;2023-02-13T01:48:53;8.30;89.80
13992;DHT22;7070;53.586;9.692;2023-02-13T01:51:23;8.40;89.80
13992;DHT22;7070;53.586;9.692;2023-02-13T01:53:55;8.30;89.80
13992;DHT22;7070;53.586;9.692;2023-02-13T01:56:28;8.30;89.70
13992;DHT22;7070;53.586;9.692;2023-02-13T01:59:00;8.30;89.80
13992;DHT22;7070;53.586;9.692;2023-02-13T02:01:28;8.30;89.80
13992;DHT22;7070;53.586;9.692;2023-02-13T02:03:59;8.30;89.80
13992;DHT22;7070;53.586;9.692;2023-02-13T02:06:28;8.30;90.20
13992;DHT22;7070;53.586;9.692;2023-02-13T02:09:02;8.30;89.80
13992;DHT22;7070;53.586;9.692;2023-02-13T02:11:34;8.30;89.80
13992;DHT22;7070;53.586;9.692;2023-02-13T02:14:03;8.30;89.70
13992;DHT22;7070;53.586;9.692;2023-02-13T02:16:30;8.20;89.70
13992;DHT22;7070;53.586;9.692;2023-02-13T02:18:58;8.30;89.60
13992;DHT22;7070;53.586;9.692;2023-02-13T02:21:48;8.30;89.70
13992;DHT22;7070;53.586;9.692;2023-02-13T02:27:39;8.20;89.70
13992;DHT22;7070;53.586;9.692;2023-02-13T02:33:27;8.20;89.60
13992;DHT22;7070;53.586;9.692;2023-02-13T02:36:07;8.20;89.70
13992;DHT22;7070;53.586;9.692;2023-02-13T02:38:50;8.10;89.40
13992;DHT22;7070;53.586;9.692;2023-02-13T02:41:30;8.10;90.20
13992;DHT22;7070;53.586;9.692;2023-02-13T02:44:14;8.10;89.50
13992;DHT22;7070;53.586;9.692;2023-02-13T02:46:55;8.20;89.60
13992;DHT22;7070;53.586;9.692;2023-02-13T02:49:44;8.10;89.50
13992;DHT22;7070;53.586;9.692;2023-02-13T02:52:29;8.10;89.50
13992;DHT22;7070;53.586;9.692;2023-02-13T02:55:01;8.10;89.40
13992;DHT22;7070;53.586;9.692;2023-02-13T02:57:36;8.10;89.50
13992;DHT22;7070;53.586;9.692;2023-02-13T03:00:25;8.10;89.50
13992;DHT22;7070;53.586;9.692;2023-02-13T03:03:14;8.20;89.50
13992;DHT22;7070;53.586;9.692;2023-02-13T03:06:03;8.10;89.30
13992;DHT22;7070;53.586;9.692;2023-02-13T03:08:40;8.10;89.40
13992;DHT22;7070;53.586;9.692;2023-02-13T03:11:26;8.10;89.30
13992;DHT22;7070;53.586;9.692;2023-02-13T03:14:14;8.10;89.30
13992;DHT22;7070;53.586;9.692;2023-02-13T03:16:42;8.10;89.30
13992;DHT22;7070;53.586;9.692;2023-02-13T03:19:34;8.10;89.30
13992;DHT22;7070;53.586;9.692;2023-02-13T03:22:30;8.10;89.30
13992;DHT22;7070;53.586;9.692;2023-02-13T03:25:05;8.00;89.20
13992;DHT22;7070;53.586;9.692;2023-02-13T03:27:40;8.00;89.20
13992;DHT22;7070;53.586;9.692;2023-02-13T03:30:35;8.10;89.20
13992;DHT22;7070;53.586;9.692;2023-02-13T03:33:17;8.10;90.00
13992;DHT22;7070;53.586;9.692;2023-02-13T03:35:55;8.00;89.20
13992;DHT22;7070;53.586;9.692;2023-02-13T03:38:53;8.10;89.30
13992;DHT22;7070;53.586;9.692;2023-02-13T03:41:24;8.10;89.20
13992;DHT22;7070;53.586;9.692;2023-02-13T03:44:00;8.00;89.10
13992;DHT22;7070;53.586;9.692;2023-02-13T03:46:34;8.10;89.20
13992;DHT22;7070;53.586;9.692;2023-02-13T03:49:03;8.00;89.10
13992;DHT22;7070;53.586;9.692;2023-02-13T03:51:53;8.10;89.20
13992;DHT22;7070;53.586;9.692;2023-02-13T03:54:25;8.00;89.10
13992;DHT22;7070;53.586;9.692;2023-02-13T03:57:14;8.00;89.20
13992;DHT22;7070;53.586;9.692;2023-02-13T04:00:03;8.00;89.20
13992;DHT22;7070;53.586;9.692;2023-02-13T04:02:33;8.10;89.20
13992;DHT22;7070;53.586;9.692;2023-02-13T04:05:07;8.00;89.20
13992;DHT22;7070;53.586;9.692;2023-02-13T04:07:34;8.00;89.20
13992;DHT22;7070;53.586;9.692;2023-02-13T04:10:05;8.00;89.10
13992;DHT22;7070;53.586;9.692;2023-02-13T04:12:38;8.00;89.00
13992;DHT22;7070;53.586;9.692;2023-02-13T04:15:11;8.00;89.00
13992;DHT22;7070;53.586;9.692;2023-02-13T04:17:44;8.00;89.00
13992;DHT22;7070;53.586;9.692;2023-02-13T04:20:13;8.00;89.10
13992;DHT22;7070;53.586;9.692;2023-02-13T04:22:43;8.00;89.20
13992;DHT22;7070;53.586;9.692;2023-02-13T04:25:14;8.00;89.10
13992;DHT22;7070;53.586;9.692;2023-02-13T04:27:42;8.00;89.10
13992;DHT22;7070;53.586;9.692;2023-02-13T04:30:10;8.00;89.10
13992;DHT22;7070;53.586;9.692;2023-02-13T04:32:37;8.00;89.20
13992;DHT22;7070;53.586;9.692;2023-02-13T04:35:04;8.00;89.10
13992;DHT22;7070;53.586;9.692;2023-02-13T04:37:31;8.00;89.10
13992;DHT22;7070;53.586;9.692;2023-02-13T04:39:58;8.00;89.20
13992;DHT22;7070;53.586;9.692;2023-02-13T04:42:26;8.00;89.10
13992;DHT22;7070;53.586;9.692;2023-02-13T04:44:53;8.00;89.10
13992;DHT22;7070;53.586;9.692;2023-02-13T04:47:20;8.00;89.10
13992;DHT22;7070;53.586;9.692;2023-02-13T04:49:47;8.00;89.10
13992;DHT22;7070;53.586;9.692;2023-02-13T04:52:14;8.00;89.20
13992;DHT22;7070;53.586;9.692;2023-02-13T04:54:40;8.00;89.30
13992;DHT22;7070;53.586;9.692;2023-02-13T04:57:07;8.00;89.10
13992;DHT22;7070;53.586;9.692;2023-02-13T04:59:35;7.90;89.00
13992;DHT22;7070;53.586;9.692;2023-02-13T05:02:02;8.00;89.10
13992;DHT22;7070;53.586;9.692;2023-02-13T05:04:29;8.00;89.10
13992;DHT22;7070;53.586;9.692;2023-02-13T05:06:56;8.00;89.00
13992;DHT22;7070;53.586;9.692;2023-02-13T05:09:23;8.00;89.00
13992;DHT22;7070;53.586;9.692;2023-02-13T05:11:50;8.00;88.90
13992;DHT22;7070;53.586;9.692;2023-02-13T05:14:18;8.00;89.00
13992;DHT22;7070;53.586;9.692;2023-02-13T05:16:46;8.00;89.00
13992;DHT22;7070;53.586;9.692;2023-02-13T05:19:14;8.00;88.90
13992;DHT22;7070;53.586;9.692;2023-02-13T05:21:41;8.00;89.00
13992;DHT22;7070;53.586;9.692;2023-02-13T05:24:25;8.00;89.00
13992;DHT22;7070;53.586;9.692;2023-02-13T05:26:52;8.10;89.00
13992;DHT22;7070;53.586;9.692;2023-02-13T05:29:19;8.00;88.90
13992;DHT22;7070;53.586;9.692;2023-02-13T05:31:49;8.00;88.90
13992;DHT22;7070;53.586;9.692;2023-02-13T05:34:17;8.00;89.00
13992;DHT22;7070;53.586;9.692;2023-02-13T05:36:44;7.90;88.90
13992;DHT22;7070;53.586;9.692;2023-02-13T05:39:11;8.00;88.90
13992;DHT22;7070;53.586;9.692;2023-02-13T05:41:40;8.00;88.90
13992;DHT22;7070;53.586;9.692;2023-02-13T05:44:07;7.90;88.90
13992;DHT22;7070;53.586;9.692;2023-02-13T05:46:36;7.90;88.90
13992;DHT22;7070;53.586;9.692;2023-02-13T05:49:04;8.00;89.00
13992;DHT22;7070;53.586;9.692;2023-02-13T05:51:32;8.00;89.00
13992;DHT22;7070;53.586;9.692;2023-02-13T05:53:59;8.00;89.00
13992;DHT22;7070;53.586;9.692;2023-02-13T05:56:26;8.00;89.00
13992;DHT22;7070;53.586;9.692;2023-02-13T05:58:53;7.90;88.90
13992;DHT22;7070;53.586;9.692;2023-02-13T06:01:20;7.90;88.80
13992;DHT22;7070;53.586;9.692;2023-02-13T06:03:47;8.00;88.80
13992;DHT22;7070;53.586;9.692;2023-02-13T06:06:16;8.00;88.80
13992;DHT22;7070;53.586;9.692;2023-02-13T06:08:43;7.90;88.60
13992;DHT22;7070;53.586;9.692;2023-02-13T06:11:10;7.90;88.60
13992;DHT22;7070;53.586;9.692;2023-02-13T06:13:36;7.90;88.70
13992;DHT22;7070;53.586;9.692;2023-02-13T06:16:05;7.90;88.70
13992;DHT22;7070;53.586;9.692;2023-02-13T06:18:32;7.80;88.60
13992;DHT22;7070;53.586;9.692;2023-02-13T06:20:59;7.80;88.60
13992;DHT22;7070;53.586;9.692;2023-02-13T06:23:28;7.80;88.60
13992;DHT22;7070;53.586;9.692;2023-02-13T06:25:55;7.80;88.60
13992;DHT22;7070;53.586;9.692;2023-02-13T06:28:22;7.80;88.70
13992;DHT22;7070;53.586;9.692;2023-02-13T06:30:49;7.90;88.70
13992;DHT22;7070;53.586;9.692;2023-02-13T06:33:16;7.80;88.70
13992;DHT22;7070;53.586;9.692;2023-02-13T06:35:43;7.80;88.70
13992;DHT22;7070;53.586;9.692;2023-02-13T06:38:10;7.80;88.70
13992;DHT22;7070;53.586;9.692;2023-02-13T06:40:38;7.80;88.60
13992;DHT22;7070;53.586;9.692;2023-02-13T06:43:05;7.80;88.80
13992;DHT22;7070;53.586;9.692;2023-02-13T06:45:31;7.80;88.70
13992;DHT22;7070;53.586;9.692;2023-02-13T06:47:58;7.80;88.70
13992;DHT22;7070;53.586;9.692;2023-02-13T06:50:25;7.80;88.70
13992;DHT22;7070;53.586;9.692;2023-02-13T06:52:52;7.80;88.70
13992;DHT22;7070;53.586;9.692;2023-02-13T06:55:19;7.80;88.70
13992;DHT22;7070;53.586;9.692;2023-02-13T06:57:47;7.80;88.80
13992;DHT22;7070;53.586;9.692;2023-02-13T07:00:16;7.80;88.70
13992;DHT22;7070;53.586;9.692;2023-02-13T07:02:44;7.80;88.80
13992;DHT22;7070;53.586;9.692;2023-02-13T07:05:12;7.80;88.70
13992;DHT22;7070;53.586;9.692;2023-02-13T07:07:40;7.80;88.90
13992;DHT22;7070;53.586;9.692;2023-02-13T07:10:09;7.80;88.80
13992;DHT22;7070;53.586;9.692;2023-02-13T07:12:36;7.80;88.80
13992;DHT22;7070;53.586;9.692;2023-02-13T07:15:05;7.80;88.80
13992;DHT22;7070;53.586;9.692;2023-02-13T07:17:32;7.80;88.80
13992;DHT22;7070;53.586;9.692;2023-02-13T07:19:59;7.80;88.90
13992;DHT22;7070;53.586;9.692;2023-02-13T07:22:26;7.80;88.90
13992;DHT22;7070;53.586;9.692;2023-02-13T07:24:53;7.80;88.80
13992;DHT22;7070;53.586;9.692;2023-02-13T07:27:20;7.90;88.90
13992;DHT22;7070;53.586;9.692;2023-02-13T07:29:46;7.80;88.80
13992;DHT22;7070;53.586;9.692;2023-02-13T07:32:15;7.80;88.70
13992;DHT22;7070;53.586;9.692;2023-02-13T07:34:42;7.90;88.90
13992;DHT22;7070;53.586;9.692;2023-02-13T07:37:08;7.80;88.80
13992;DHT22;7070;53.586;9.692;2023-02-13T07:39:36;7.80;88.90
13992;DHT22;7070;53.586;9.692;2023-02-13T07:42:03;7.90;88.90
13992;DHT22;7070;53.586;9.692;2023-02-13T07:44:30;7.90;88.90
13992;DHT22;7070;53.586;9.692;2023-02-13T07:46:57;7.90;88.90
13992;DHT22;7070;53.586;9.692;2023-02-13T07:49:27;8.00;89.00
13992;DHT22;7070;53.586;9.692;2023-02-13T07:51:55;8.00;89.10
13992;DHT22;7070;53.586;9.692;2023-02-13T07:54:22;8.00;89.00
13992;DHT22;7070;53.586;9.692;2023-02-13T07:56:49;8.00;89.00
13992;DHT22;7070;53.586;9.692;2023-02-13T07:59:16;8.00;89.00
13992;DHT22;7070;53.586;9.692;2023-02-13T08:01:43;8.00;89.00
13992;DHT22;7070;53.586;9.692;2023-02-13T08:04:09;8.10;89.10
13992;DHT22;7070;53.586;9.692;2023-02-13T08:06:39;8.00;89.10
13992;DHT22;7070;53.586;9.692;2023-02-13T08:09:06;8.00;89.10
13992;DHT22;7070;53.586;9.692;2023-02-13T08:11:51;8.10;89.20
13992;DHT22;7070;53.586;9.692;2023-02-13T08:14:22;8.10;89.10
13992;DHT22;7070;53.586;9.692;2023-02-13T08:16:49;8.20;89.20
13992;DHT22;7070;53.586;9.692;2023-02-13T08:19:17;8.20;89.20
13992;DHT22;7070;53.586;9.692;2023-02-13T08:21:45;8.20;89.20
13992;DHT22;7070;53.586;9.692;2023-02-13T08:24:12;8.30;89.30
13992;DHT22;7070;53.586;9.692;2023-02-13T08:26:39;8.20;89.10
13992;DHT22;7070;53.586;9.692;2023-02-13T08:29:06;8.30;89.30
13992;DHT22;7070;53.586;9.692;2023-02-13T08:31:33;8.30;89.30
13992;DHT22;7070;53.586;9.692;2023-02-13T08:34:00;8.40;89.30
13992;DHT22;7070;53.586;9.692;2023-02-13T08:36:27;8.50;89.40
13992;DHT22;7070;53.586;9.692;2023-02-13T08:38:55;8.50;89.40
13992;DHT22;7070;53.586;9.692;2023-02-13T08:41:22;8.40;89.20
13992;DHT22;7070;53.586;9.692;2023-02-13T08:43:49;8.50;89.30
13992;DHT22;7070;53.586;9.692;2023-02-13T08:46:16;8.50;89.20
13992;DHT22;7070;53.586;9.692;2023-02-13T08:48:43;8.50;89.10
13992;DHT22;7070;53.586;9.692;2023-02-13T08:51:12;8.60;89.30
13992;DHT22;7070;53.586;9.692;2023-02-13T08:53:39;8.60;89.10
13992;DHT22;7070;53.586;9.692;2023-02-13T08:56:08;8.60;89.20
13992;DHT22;7070;53.586;9.692;2023-02-13T08:58:35;8.60;89.20
13992;DHT22;7070;53.586;9.692;2023-02-13T09:01:04;8.70;89.30
13992;DHT22;7070;53.586;9.692;2023-02-13T09:03:31;8.70;89.30
13992;DHT22;7070;53.586;9.692;2023-02-13T09:05:58;8.70;89.40
13992;DHT22;7070;53.586;9.692;2023-02-13T09:08:25;8.80;89.40
13992;DHT22;7070;53.586;9.692;2023-02-13T09:10:55;8.80;89.40
13992;DHT22;7070;53.586;9.692;2023-02-13T09:13:24;8.80;89.30
13992;DHT22;7070;53.586;9.692;2023-02-13T09:15:51;8.90;89.40
13992;DHT22;7070;53.586;9.692;2023-02-13T09:18:18;8.90;89.30
13992;DHT22;7070;53.586;9.692;2023-02-13T09:20:45;8.90;89.20
13992;DHT22;7070;53.586;9.692;2023-02-13T09:23:12;9.00;89.30
13992;DHT22;7070;53.586;9.692;2023-02-13T09:25:39;9.00;89.20
13992;DHT22;7070;53.586;9.692;2023-02-13T09:28:05;9.00;89.20
13992;DHT22;7070;53.586;9.692;2023-02-13T09:30:34;9.10;89.20
13992;DHT22;7070;53.586;9.692;2023-02-13T09:33:00;9.10;89.20
13992;DHT22;7070;53.586;9.692;2023-02-13T09:35:27;9.20;89.30
13992;DHT22;7070;53.586;9.692;2023-02-13T09:37:54;9.20;89.30
13992;DHT22;7070;53.586;9.692;2023-02-13T09:40:25;9.20;89.30
13992;DHT22;7070;53.586;9.692;2023-02-13T09:43:03;9.20;89.10
13992;DHT22;7070;53.586;9.692;2023-02-13T09:45:34;9.30;89.20
13992;DHT22;7070;53.586;9.692;2023-02-13T09:48:02;9.30;89.10
13992;DHT22;7070;53.586;9.692;2023-02-13T09:50:31;9.30;89.20
13992;DHT22;7070;53.586;9.692;2023-02-13T09:52:59;9.30;89.10
13992;DHT22;7070;53.586;9.692;2023-02-13T09:55:32;9.40;89.20
13992;DHT22;7070;53.586;9.692;2023-02-13T09:58:08;9.40;89.20
13992;DHT22;7070;53.586;9.692;2023-02-13T10:00:45;9.50;89.20
13992;DHT22;7070;53.586;9.692;2023-02-13T10:03:20;9.50;89.10
13992;DHT22;7070;53.586;9.692;2023-02-13T10:05:55;9.50;89.20
13992;DHT22;7070;53.586;9.692;2023-02-13T10:08:38;9.50;89.10
13992;DHT22;7070;53.586;9.692;2023-02-13T10:11:19;9.60;89.30
13992;DHT22;7070;53.586;9.692;2023-02-13T10:13:58;9.60;89.10
13992;DHT22;7070;53.586;9.692;2023-02-13T10:16:33;9.70;89.10
13992;DHT22;7070;53.586;9.692;2023-02-13T10:19:03;9.70;89.10
13992;DHT22;7070;53.586;9.692;2023-02-13T10:21:38;9.70;89.10
13992;DHT22;7070;53.586;9.692;2023-02-13T10:24:11;9.80;89.00
13992;DHT22;7070;53.586;9.692;2023-02-13T10:26:41;9.80;89.00
13992;DHT22;7070;53.586;9.692;2023-02-13T10:29:14;9.90;89.00
13992;DHT22;7070;53.586;9.692;2023-02-13T10:32:05;9.90;89.00
13992;DHT22;7070;53.586;9.692;2023-02-13T10:34:35;10.00;87.90
13992;DHT22;7070;53.586;9.692;2023-02-13T10:37:08;10.00;87.80
13992;DHT22;7070;53.586;9.692;2023-02-13T10:39:39;10.10;87.80
13992;DHT22;7070;53.586;9.692;2023-02-13T10:42:13;10.10;87.80
13992;DHT22;7070;53.586;9.692;2023-02-13T10:44:55;10.10;88.40
13992;DHT22;7070;53.586;9.692;2023-02-13T10:47:43;10.20;88.50
13992;DHT22;7070;53.586;9.692;2023-02-13T10:50:20;10.20;87.60
13992;DHT22;7070;53.586;9.692;2023-02-13T10:52:52;10.30;87.60
13992;DHT22;7070;53.586;9.692;2023-02-13T10:55:35;10.30;87.50
13992;DHT22;7070;53.586;9.692;2023-02-13T10:58:16;10.30;87.50
13992;DHT22;7070;53.586;9.692;2023-02-13T11:00:47;10.30;88.10
13992;DHT22;7070;53.586;9.692;2023-02-13T11:03:19;10.30;87.30
13992;DHT22;7070;53.586;9.692;2023-02-13T11:05:47;10.40;88.10
13992;DHT22;7070;53.586;9.692;2023-02-13T11:08:19;10.40;87.10
13992;DHT22;7070;53.586;9.692;2023-02-13T11:10:46;10.40;87.10
13992;DHT22;7070;53.586;9.692;2023-02-13T11:13:16;10.50;87.00
13992;DHT22;7070;53.586;9.692;2023-02-13T11:15:58;10.50;86.90
13992;DHT22;7070;53.586;9.692;2023-02-13T11:18:28;10.50;86.90
13992;DHT22;7070;53.586;9.692;2023-02-13T11:21:06;10.50;86.60
13992;DHT22;7070;53.586;9.692;2023-02-13T11:23:39;10.60;86.60
13992;DHT22;7070;53.586;9.692;2023-02-13T11:26:10;10.60;86.40
13992;DHT22;7070;53.586;9.692;2023-02-13T11:28:44;10.60;86.30
13992;DHT22;7070;53.586;9.692;2023-02-13T11:31:18;10.60;86.10
13992;DHT22;7070;53.586;9.692;2023-02-13T11:33:48;10.60;85.90
13992;DHT22;7070;53.586;9.692;2023-02-13T11:36:23;10.60;85.90
13992;DHT22;7070;53.586;9.692;2023-02-13T11:38:57;10.60;85.70
13992;DHT22;7070;53.586;9.692;2023-02-13T11:41:24;10.60;85.70
13992;DHT22;7070;53.586;9.692;2023-02-13T11:43:54;10.60;85.50
13992;DHT22;7070;53.586;9.692;2023-02-13T11:46:27;10.70;85.50
13992;DHT22;7070;53.586;9.692;2023-02-13T11:48:58;10.70;85.40
13992;DHT22;7070;53.586;9.692;2023-02-13T11:51:38;10.70;85.40
13992;DHT22;7070;53.586;9.692;2023-02-13T11:54:05;10.70;85.40
13992;DHT22;7070;53.586;9.692;2023-02-13T11:56:50;10.70;85.20
13992;DHT22;7070;53.586;9.692;2023-02-13T11:59:17;10.80;85.30
13992;DHT22;7070;53.586;9.692;2023-02-13T12:02:00;10.70;84.90
13992;DHT22;7070;53.586;9.692;2023-02-13T12:04:29;10.80;85.00
13992;DHT22;7070;53.586;9.692;2023-02-13T12:07:01;10.80;84.80
13992;DHT22;7070;53.586;9.692;2023-02-13T12:09:28;10.80;84.70
13992;DHT22;7070;53.586;9.692;2023-02-13T12:11:57;10.90;84.70
13992;DHT22;7070;53.586;9.692;2023-02-13T12:14:30;10.90;84.50
13992;DHT22;7070;53.586;9.692;2023-02-13T12:17:01;11.00;84.40
13992;DHT22;7070;53.586;9.692;2023-02-13T12:19:34;10.90;84.20
13992;DHT22;7070;53.586;9.692;2023-02-13T12:22:26;11.00;84.10
13992;DHT22;7070;53.586;9.692;2023-02-13T12:25:14;11.00;84.10
13992;DHT22;7070;53.586;9.692;2023-02-13T12:27:54;11.10;84.00
13992;DHT22;7070;53.586;9.692;2023-02-13T12:33:29;11.00;83.80
13992;DHT22;7070;53.586;9.692;2023-02-13T12:36:05;11.10;83.60
13992;DHT22;7070;53.586;9.692;2023-02-13T12:38:45;11.00;83.70
13992;DHT22;7070;53.586;9.692;2023-02-13T12:41:20;11.10;84.20
13992;DHT22;7070;53.586;9.692;2023-02-13T12:46:57;11.10;83.50
13992;DHT22;7070;53.586;9.692;2023-02-13T12:49:48;11.20;83.50
13992;DHT22;7070;53.586;9.692;2023-02-13T12:52:33;11.20;83.40
13992;DHT22;7070;53.586;9.692;2023-02-13T12:58:12;11.20;83.20
13992;DHT22;7070;53.586;9.692;2023-02-13T13:00:48;11.20;83.00
13992;DHT22;7070;53.586;9.692;2023-02-13T13:03:29;11.20;83.00
13992;DHT22;7070;53.586;9.692;2023-02-13T13:06:09;11.20;82.80
13992;DHT22;7070;53.586;9.692;2023-02-13T13:09:06;11.20;82.70
13992;DHT22;7070;53.586;9.692;2023-02-13T13:11:51;11.20;82.70
13992;DHT22;7070;53.586;9.692;2023-02-13T13:14:28;11.20;82.60
13992;DHT22;7070;53.586;9.692;2023-02-13T13:17:02;11.20;82.50
13992;DHT22;7070;53.586;9.692;2023-02-13T13:19:37;11.20;82.50
13992;DHT22;7070;53.586;9.692;2023-02-13T13:22:10;11.20;82.50
13992;DHT22;7070;53.586;9.692;2023-02-13T13:24:50;11.20;82.40
13992;DHT22;7070;53.586;9.692;2023-02-13T13:27:22;11.20;82.40
13992;DHT22;7070;53.586;9.692;2023-02-13T13:29:54;11.10;82.10
13992;DHT22;7070;53.586;9.692;2023-02-13T13:32:23;11.10;81.90
13992;DHT22;7070;53.586;9.692;2023-02-13T13:34:51;11.10;81.90
13992;DHT22;7070;53.586;9.692;2023-02-13T13:37:27;11.00;81.60
13992;DHT22;7070;53.586;9.692;2023-02-13T13:39:59;11.00;81.60
13992;DHT22;7070;53.586;9.692;2023-02-13T13:42:36;11.00;81.50
13992;DHT22;7070;53.586;9.692;2023-02-13T13:45:27;10.90;82.10
13992;DHT22;7070;53.586;9.692;2023-02-13T13:50:45;10.80;81.40
13992;DHT22;7070;53.586;9.692;2023-02-13T13:53:14;10.80;81.40
13992;DHT22;7070;53.586;9.692;2023-02-13T13:56:03;10.70;81.40
13992;DHT22;7070;53.586;9.692;2023-02-13T13:58:35;10.70;81.60
13992;DHT22;7070;53.586;9.692;2023-02-13T14:01:19;10.70;81.50
13992;DHT22;7070;53.586;9.692;2023-02-13T14:03:48;10.80;81.70
13992;DHT22;7070;53.586;9.692;2023-02-13T14:06:16;10.80;81.50
13992;DHT22;7070;53.586;9.692;2023-02-13T14:08:58;10.70;82.20
13992;DHT22;7070;53.586;9.692;2023-02-13T14:11:34;10.70;81.50
13992;DHT22;7070;53.586;9.692;2023-02-13T14:17:49;10.70;81.50
13992;DHT22;7070;53.586;9.692;2023-02-13T14:20:22;10.60;81.30
13992;DHT22;7070;53.586;9.692;2023-02-13T14:22:52;10.60;81.10
13992;DHT22;7070;53.586;9.692;2023-02-13T14:25:22;10.50;81.00
13992;DHT22;7070;53.586;9.692;2023-02-13T14:27:56;10.40;80.80
13992;DHT22;7070;53.586;9.692;2023-02-13T14:30:26;10.30;80.80
13992;DHT22;7070;53.586;9.692;2023-02-13T14:32:55;10.30;80.50
13992;DHT22;7070;53.586;9.692;2023-02-13T14:35:25;10.30;80.50
13992;DHT22;7070;53.586;9.692;2023-02-13T14:37:54;10.20;80.40
13992;DHT22;7070;53.586;9.692;2023-02-13T14:40:43;10.10;80.20
13992;DHT22;7070;53.586;9.692;2023-02-13T14:43:30;10.00;80.20
13992;DHT22;7070;53.586;9.692;2023-02-13T14:46:15;9.90;81.30
13992;DHT22;7070;53.586;9.692;2023-02-13T14:48:51;9.80;81.30
13992;DHT22;7070;53.586;9.692;2023-02-13T14:51:24;9.70;81.20
13992;DHT22;7070;53.586;9.692;2023-02-13T14:53:57;9.70;81.30
13992;DHT22;7070;53.586;9.692;2023-02-13T14:56:26;9.60;81.10
13992;DHT22;7070;53.586;9.692;2023-02-13T14:58:59;9.50;81.20
13992;DHT22;7070;53.586;9.692;2023-02-13T15:01:29;9.50;81.40
13992;DHT22;7070;53.586;9.692;2023-02-13T15:04:04;9.40;81.30
13992;DHT22;7070;53.586;9.692;2023-02-13T15:06:38;9.40;81.30
13992;DHT22;7070;53.586;9.692;2023-02-13T15:09:25;9.30;81.30
13992;DHT22;7070;53.586;9.692;2023-02-13T15:11:53;9.30;81.60
13992;DHT22;7070;53.586;9.692;2023-02-13T15:14:22;9.30;81.40
13992;DHT22;7070;53.586;9.692;2023-02-13T15:16:54;9.20;81.30
13992;DHT22;7070;53.586;9.692;2023-02-13T15:19:23;9.10;81.30
13992;DHT22;7070;53.586;9.692;2023-02-13T15:21:56;9.10;81.30
13992;DHT22;7070;53.586;9.692;2023-02-13T15:24:24;9.00;82.10
13992;DHT22;7070;53.586;9.692;2023-02-13T15:26:57;9.10;81.40
13992;DHT22;7070;53.586;9.692;2023-02-13T15:29:24;9.00;81.30
13992;DHT22;7070;53.586;9.692;2023-02-13T15:31:51;9.00;81.20
13992;DHT22;7070;53.586;9.692;2023-02-13T15:34:22;9.00;81.20
13992;DHT22;7070;53.586;9.692;2023-02-13T15:36:49;8.90;81.30
13992;DHT22;7070;53.586;9.692;2023-02-13T15:39:18;8.90;81.40
13992;DHT22;7070;53.586;9.692;2023-02-13T15:41:47;8.90;81.30
13992;DHT22;7070;53.586;9.692;2023-02-13T15:44:21;8.90;81.20
13992;DHT22;7070;53.586;9.692;2023-02-13T15:46:49;8.90;81.20
13992;DHT22;7070;53.586;9.692;2023-02-13T15:49:18;8.80;81.20
13992;DHT22;7070;53.586;9.692;2023-02-13T15:51:47;8.80;81.20
13992;DHT22;7070;53.586;9.692;2023-02-13T15:54:24;8.70;81.30
13992;DHT22;7070;53.586;9.692;2023-02-13T15:56:53;8.70;81.50
13992;DHT22;7070;53.586;9.692;2023-02-13T15:59:21;8.70;81.50
13992;DHT22;7070;53.586;9.692;2023-02-13T16:01:51;8.70;81.40
13992;DHT22;7070;53.586;9.692;2023-02-13T16:04:19;8.70;81.50
13992;DHT22;7070;53.586;9.692;2023-02-13T16:06:49;8.70;81.50
13992;DHT22;7070;53.586;9.692;2023-02-13T16:09:23;8.70;81.50
13992;DHT22;7070;53.586;9.692;2023-02-13T16:11:55;8.70;82.20
13992;DHT22;7070;53.586;9.692;2023-02-13T16:14:23;8.70;81.50
13992;DHT22;7070;53.586;9.692;2023-02-13T16:16:53;8.60;81.40
13992;DHT22;7070;53.586;9.692;2023-02-13T16:19:40;8.60;82.20
13992;DHT22;7070;53.586;9.692;2023-02-13T16:22:29;8.60;81.60
13992;DHT22;7070;53.586;9.692;2023-02-13T16:25:08;8.60;81.60
13992;DHT22;7070;53.586;9.692;2023-02-13T16:27:43;8.60;81.60
13992;DHT22;7070;53.586;9.692;2023-02-13T16:30:24;8.50;81.40
13992;DHT22;7070;53.586;9.692;2023-02-13T16:33:18;8.50;81.50
13992;DHT22;7070;53.586;9.692;2023-02-13T16:35:47;8.50;81.60
13992;DHT22;7070;53.586;9.692;2023-02-13T16:38:31;8.50;81.50
13992;DHT22;7070;53.586;9.692;2023-02-13T16:41:00;8.40;81.50
13992;DHT22;7070;53.586;9.692;2023-02-13T16:43:39;8.40;81.40
13992;DHT22;7070;53.586;9.692;2023-02-13T16:46:25;8.40;81.40
13992;DHT22;7070;53.586;9.692;2023-02-13T16:49:05;8.40;81.50